Campanya Meteocatpedra
Centenari de l'SMC: 100 anys mirant el cel

Dades de l'estació automàtica el Poal

?
?

Resum diari

22:00 TU
Dades diàries de l'estació meteorològica
Temperatura mitjana 17.1 °C
Temperatura màxima 25.5 °C 14:01 TU
Temperatura mínima 9.2 °C 5:52 TU
Humitat relativa mitjana 66%
Precipitació acumulada 0.0 mm
Ratxa màxima del vent (2 m) 20.2 km/h - 242º 16:31 TU
Irradiació solar global 19.3 MJ/m2

El tram horari està expressat en Temps Universal (TU). Cal sumar una hora en horari d'hivern i dues en horari d'estiu per passar a l'hora oficial.

el Poal

Metadades estació meteorològica
Municipi El Poal
Comarca Pla d'Urgell
Altitud 223 m
Data alta 14.09.1989
Estat actual Operativa
Dades de període
Període
TU
TM
°C
TX
°C
TN
°C
HRM
%
PPT
mm
VVM (2 m)
km/h
DVM (2 m)
graus
VVX (2 m)
km/h
RS
W/m2
00:00 - 00:30 11.2 11.4 10.8 96 0.0 (s/d) (s/d) (s/d) 0
00:30 - 01:00 10.8 10.8 10.7 97 0.0 (s/d) (s/d) (s/d) 0
01:00 - 01:30 10.9 11.2 10.6 98 0.0 (s/d) (s/d) (s/d) 0
01:30 - 02:00 10.7 11.0 10.5 98 0.0 0.0 105 1.1 0
02:00 - 02:30 10.4 10.6 10.3 98 0.0 0.0 105 1.1 0
02:30 - 03:00 10.1 10.4 9.9 98 0.0 0.0 0 0.0 0
03:00 - 03:30 9.9 10.4 9.6 98 0.0 0.0 249 2.5 0
03:30 - 04:00 10.8 11.3 10.4 98 0.0 0.7 232 3.6 0
04:00 - 04:30 11.4 11.5 11.2 95 0.0 0.7 235 2.9 0
04:30 - 05:00 10.6 11.1 10.2 95 0.0 (s/d) (s/d) (s/d) 0
05:00 - 05:30 9.9 10.2 9.5 97 0.0 (s/d) (s/d) (s/d) 0
05:30 - 06:00 9.4 9.5 9.2 98 0.0 (s/d) (s/d) (s/d) 4
06:00 - 06:30 9.5 9.9 9.3 98 0.0 (s/d) (s/d) (s/d) 20
06:30 - 07:00 11.1 12.8 10.0 99 0.0 (s/d) (s/d) (s/d) 84
07:00 - 07:30 14.0 15.6 12.6 90 0.0 1.1 226 5.8 214
07:30 - 08:00 16.1 16.9 15.6 76 0.0 4.0 232 10.8 342
08:00 - 08:30 17.0 17.6 16.7 72 0.0 4.7 233 11.2 265
08:30 - 09:00 17.7 18.4 16.8 70 0.0 4.3 266 14.4 406
09:00 - 09:30 19.2 19.8 18.5 63 0.0 6.1 251 16.6 591
09:30 - 10:00 19.5 20.1 19.1 62 0.0 6.1 252 16.9 536
10:00 - 10:30 20.7 21.6 20.1 59 0.0 5.8 244 15.5 721
10:30 - 11:00 21.7 21.9 21.4 54 0.0 6.8 250 19.4 736
11:00 - 11:30 22.4 22.8 21.8 51 0.0 7.6 232 19.1 769
11:30 - 12:00 22.9 23.3 22.5 50 0.0 7.2 249 15.8 787
12:00 - 12:30 23.6 24.1 23.1 48 0.0 6.8 251 15.5 794
12:30 - 13:00 24.1 24.4 23.9 44 0.0 6.5 276 15.1 774
13:00 - 13:30 24.7 24.9 24.5 41 0.0 6.1 266 18.4 712
13:30 - 14:00 25.1 25.2 24.8 36 0.0 7.2 240 17.6 689
14:00 - 14:30 25.2 25.5 24.8 33 0.0 7.9 235 19.8 632
14:30 - 15:00 25.0 25.5 24.6 31 0.0 7.9 239 18.7 559
15:00 - 15:30 24.5 24.8 24.2 30 0.0 8.3 235 17.3 475
15:30 - 16:00 23.6 24.4 22.8 33 0.0 9.0 243 18.0 292
16:00 - 16:30 22.5 23.1 22.0 37 0.0 7.6 243 17.6 171
16:30 - 17:00 21.5 21.9 21.1 40 0.0 7.2 249 20.2 89
17:00 - 17:30 21.0 21.3 20.5 42 0.0 5.8 245 13.7 68
17:30 - 18:00 19.9 20.4 19.2 43 0.0 5.0 237 11.9 10
18:00 - 18:30 18.6 19.1 18.3 45 0.0 6.5 236 15.8 0
18:30 - 19:00 18.3 18.4 18.2 45 0.0 5.4 246 17.6 0
19:00 - 19:30 17.4 18.3 16.8 50 0.0 1.8 196 6.5 0
19:30 - 20:00 16.5 16.8 16.4 55 0.0 1.8 196 6.1 0
20:00 - 20:30 17.0 17.1 16.8 55 0.0 2.9 211 9.0 0
20:30 - 21:00 16.7 17.1 16.5 56 0.0 1.8 209 6.5 0
21:00 - 21:30 16.2 16.6 15.7 59 0.0 0.7 209 5.8 0
21:30 - 22:00 15.7 16.0 15.6 61 0.0 0.7 172 4.3 0
22:00 - 22:30 15.7 16.0 15.3 63 0.0 0.7 214 5.8 0

Les dades en taronja només han passat un control de qualitat automàtic. Resta pendent la seva validació definitiva.